createdAt,value
2018-12-05T00:00:40.651Z,102196.94
2018-12-05T00:03:07.204Z,102194.39
2018-12-05T00:05:33.227Z,102195.56
2018-12-05T00:08:00.845Z,102196.69
2018-12-05T00:10:27.011Z,102192.19
2018-12-05T00:12:54.651Z,102192.44
2018-12-05T00:15:20.754Z,102196.52
2018-12-05T00:17:54.891Z,102195.68
2018-12-05T00:20:22.445Z,102189.02
2018-12-05T00:22:51.248Z,102182.94
2018-12-05T00:25:20.496Z,102181.86
2018-12-05T00:27:46.701Z,102188.52
2018-12-05T00:30:12.947Z,102189.06
2018-12-05T00:32:39.085Z,102194.62
2018-12-05T00:35:05.652Z,102201.55
2018-12-05T00:37:31.768Z,102202.57
2018-12-05T00:39:58.845Z,102207.98
2018-12-05T00:42:25.720Z,102202.98
2018-12-05T00:44:53.183Z,102206.98
2018-12-05T00:47:21.427Z,102200.06
2018-12-05T00:49:49.351Z,102201.39
2018-12-05T00:52:16.937Z,102209.27
2018-12-05T00:54:43.092Z,102212.08
2018-12-05T00:57:09.218Z,102207.83
2018-12-05T00:59:35.964Z,102215.94
2018-12-05T01:02:02.106Z,102218.30
2018-12-05T01:04:28.354Z,102216.59
2018-12-05T01:06:54.490Z,102223.58
2018-12-05T01:09:20.618Z,102224.45
2018-12-05T01:11:47.141Z,102224.45
2018-12-05T01:14:13.234Z,102229.28
2018-12-05T01:16:39.907Z,102232.63
2018-12-05T01:19:07.748Z,102223.69
2018-12-05T01:21:34.452Z,102226.75
2018-12-05T01:24:01.519Z,102224.84
2018-12-05T01:26:33.382Z,102224.16
2018-12-05T01:29:01.274Z,102228.09
2018-12-05T01:31:27.545Z,102225.80
2018-12-05T01:33:53.646Z,102227.33
2018-12-05T01:36:19.812Z,102229.71
2018-12-05T01:38:46.663Z,102232.44
2018-12-05T01:41:14.488Z,102234.78
2018-12-05T01:43:46.551Z,102234.28
2018-12-05T01:46:12.704Z,102225.92
2018-12-05T01:48:39.413Z,102231.62
2018-12-05T01:51:05.497Z,102239.67
2018-12-05T01:53:31.614Z,102236.63
2018-12-05T01:56:05.319Z,102233.71
2018-12-05T01:58:31.451Z,102236.75
2018-12-05T02:00:58.257Z,102228.30
2018-12-05T02:03:24.980Z,102230.84
2018-12-05T02:05:51.098Z,102233.77
2018-12-05T02:08:17.221Z,102236.34
2018-12-05T02:10:43.358Z,102228.70
2018-12-05T02:13:09.484Z,102195.98
2018-12-05T02:15:35.640Z,102238.45
2018-12-05T02:18:01.764Z,102241.30
2018-12-05T02:20:27.863Z,102243.34
2018-12-05T02:22:54.002Z,102237.73
2018-12-05T02:25:20.097Z,102237.81
2018-12-05T02:27:46.247Z,102242.19
2018-12-05T02:30:12.292Z,102245.48
2018-12-05T02:32:38.425Z,102247.14
2018-12-05T02:35:04.334Z,102247.14
2018-12-05T02:37:30.187Z,102250.87
2018-12-05T02:39:55.918Z,102249.11
2018-12-05T02:42:21.635Z,102242.85
2018-12-05T02:44:47.362Z,102241.08
2018-12-05T02:47:13.091Z,102238.42
2018-12-05T02:49:38.804Z,102246.34
2018-12-05T02:52:04.654Z,102241.63
2018-12-05T02:54:30.391Z,102239.05
2018-12-05T02:56:56.207Z,102242.78
2018-12-05T02:59:22.026Z,102236.70
2018-12-05T03:01:47.759Z,102237.86
2018-12-05T03:04:13.621Z,102244.42
2018-12-05T03:06:39.343Z,102236.38
2018-12-05T03:09:07.107Z,102241.41
2018-12-05T03:11:32.833Z,102242.66
2018-12-05T03:13:58.668Z,102244.38
2018-12-05T03:16:24.394Z,102235.92
2018-12-05T03:18:50.126Z,102249.70
2018-12-05T03:21:15.942Z,102244.22
2018-12-05T03:23:41.795Z,102247.84
2018-12-05T03:26:07.642Z,102253.24
2018-12-05T03:28:33.367Z,102257.92
2018-12-05T03:30:59.187Z,102259.74
2018-12-05T03:33:24.929Z,102259.44
2018-12-05T03:35:50.736Z,102264.39
2018-12-05T03:38:16.457Z,102264.99
2018-12-05T03:40:42.179Z,102266.82
2018-12-05T03:43:07.987Z,102266.52
2018-12-05T03:45:33.827Z,102263.77
2018-12-05T03:47:59.560Z,102267.58
2018-12-05T03:50:25.291Z,102266.44
2018-12-05T03:52:51.134Z,102272.25
2018-12-05T03:55:16.877Z,102270.73
2018-12-05T03:57:42.694Z,102270.47
2018-12-05T04:00:08.527Z,102270.47
2018-12-05T04:02:34.247Z,102268.10
2018-12-05T04:04:59.970Z,102272.85
2018-12-05T04:07:25.701Z,102280.83
2018-12-05T04:09:51.432Z,102271.06
2018-12-05T04:12:17.153Z,102273.04
2018-12-05T04:14:42.914Z,102272.66
2018-12-05T04:17:08.674Z,102278.17
2018-12-05T04:19:34.622Z,102274.67
2018-12-05T04:22:00.538Z,102274.94
2018-12-05T04:24:26.291Z,102279.69
2018-12-05T04:26:52.020Z,102277.79
2018-12-05T04:29:17.832Z,102277.90
2018-12-05T04:31:43.565Z,102280.45
2018-12-05T04:34:09.275Z,102283.89
2018-12-05T04:36:35.116Z,102278.77
2018-12-05T04:39:00.840Z,102279.90
2018-12-05T04:41:26.572Z,102269.06
2018-12-05T04:43:52.294Z,102275.24
2018-12-05T04:46:18.012Z,102272.69
2018-12-05T04:48:43.856Z,102277.63
2018-12-05T04:51:09.680Z,102276.30
2018-12-05T04:53:35.411Z,102278.86
2018-12-05T04:56:01.244Z,102285.05
2018-12-05T04:58:26.952Z,102285.05
2018-12-05T05:00:52.782Z,102286.17
2018-12-05T05:03:18.498Z,102283.80
2018-12-05T05:05:44.337Z,102289.02
2018-12-05T05:08:10.039Z,102291.23
2018-12-05T05:10:35.859Z,102285.80
2018-12-05T05:13:01.584Z,102290.38
2018-12-05T05:15:27.411Z,102287.80
2018-12-05T05:17:53.242Z,102295.78
2018-12-05T05:20:19.047Z,102293.20
2018-12-05T05:22:44.868Z,102294.63
2018-12-05T05:25:10.614Z,102295.58
2018-12-05T05:27:36.395Z,102293.03
2018-12-05T05:30:03.599Z,102294.55
2018-12-05T05:32:29.447Z,102299.47
2018-12-05T05:34:55.195Z,102301.75
2018-12-05T05:37:21.036Z,102296.55
2018-12-05T05:39:46.863Z,102297.29
2018-12-05T05:42:12.604Z,102303.16
2018-12-05T05:44:38.327Z,102304.50
2018-12-05T05:47:04.155Z,102303.84
2018-12-05T05:49:29.983Z,102307.92
2018-12-05T05:51:55.841Z,102302.50
2018-12-05T05:54:21.674Z,102297.37
2018-12-05T05:56:47.499Z,102314.66
2018-12-05T05:59:13.248Z,102311.15
2018-12-05T06:01:39.094Z,102308.67
2018-12-05T06:04:11.823Z,102314.27
2018-12-05T06:06:37.655Z,102315.01
2018-12-05T06:09:05.495Z,102315.67
2018-12-05T06:11:31.228Z,102313.50
2018-12-05T06:13:56.959Z,102313.12
2018-12-05T06:16:22.683Z,102307.98
2018-12-05T06:18:48.516Z,102304.69
2018-12-05T06:21:14.252Z,102305.81
2018-12-05T06:23:39.979Z,102306.86
2018-12-05T06:26:05.691Z,102293.37
2018-12-05T06:28:31.406Z,102298.40
2018-12-05T06:30:57.227Z,102299.47
2018-12-05T06:33:22.951Z,102305.35
2018-12-05T06:35:48.667Z,102318.25
2018-12-05T06:38:14.399Z,102322.70
2018-12-05T06:40:40.211Z,102321.09
2018-12-05T06:43:05.923Z,102316.36
2018-12-05T06:45:31.652Z,102323.95
2018-12-05T06:47:57.375Z,102327.83
2018-12-05T06:50:23.195Z,102329.23
2018-12-05T06:52:48.903Z,102335.31
2018-12-05T06:55:14.627Z,102333.42
2018-12-05T07:00:13.386Z,102333.22
2018-12-05T07:02:39.209Z,102332.66
2018-12-05T07:05:05.136Z,102338.53
2018-12-05T07:07:30.954Z,102341.75
2018-12-05T07:09:56.782Z,102341.75
2018-12-05T07:12:22.499Z,102342.91
2018-12-05T07:14:48.222Z,102335.59
2018-12-05T07:17:14.036Z,102341.36
2018-12-05T07:19:39.867Z,102339.09
2018-12-05T07:22:05.675Z,102340.59
2018-12-05T07:24:31.408Z,102335.28
2018-12-05T07:26:57.119Z,102334.62
2018-12-05T07:29:22.840Z,102329.90
2018-12-05T07:31:48.681Z,102334.05
2018-12-05T07:34:21.452Z,102331.51
2018-12-05T07:36:47.279Z,102327.31
2018-12-05T07:39:12.992Z,102324.87
2018-12-05T07:41:38.818Z,102337.59
2018-12-05T07:44:04.747Z,102331.05
2018-12-05T07:46:30.478Z,102335.59
2018-12-05T07:48:56.191Z,102333.08
2018-12-05T07:51:22.011Z,102334.86
2018-12-05T07:53:47.726Z,102335.91
2018-12-05T07:56:13.443Z,102341.04
2018-12-05T07:58:39.161Z,102349.60
2018-12-05T08:01:04.990Z,102353.77
2018-12-05T08:03:30.707Z,102352.83
2018-12-05T08:05:56.429Z,102353.59
2018-12-05T08:08:22.147Z,102361.92
2018-12-05T08:10:54.826Z,102361.53
2018-12-05T08:13:20.538Z,102356.11
2018-12-05T08:15:46.359Z,102353.84
2018-12-05T08:18:12.079Z,102358.90
2018-12-05T08:20:37.892Z,102367.82
2018-12-05T08:23:03.627Z,102364.95
2018-12-05T08:25:29.347Z,102365.34
2018-12-05T08:27:55.064Z,102374.64
2018-12-05T08:30:20.867Z,102377.02
2018-12-05T08:32:46.687Z,102376.56
2018-12-05T08:35:12.427Z,102380.37
2018-12-05T08:37:38.147Z,102369.63
2018-12-05T08:40:04.363Z,102367.45
2018-12-05T08:42:30.087Z,102362.13
2018-12-05T08:44:55.895Z,102352.75
2018-12-05T08:47:21.611Z,102353.98
2018-12-05T08:49:47.331Z,102352.53
2018-12-05T08:52:13.159Z,102356.42
2018-12-05T08:54:38.876Z,102356.42
2018-12-05T08:57:04.600Z,102360.42
2018-12-05T08:59:30.311Z,102358.20
2018-12-05T09:01:56.138Z,102358.78
2018-12-05T09:04:21.948Z,102360.84
2018-12-05T09:06:47.771Z,102350.39
2018-12-05T09:09:13.479Z,102347.61
2018-12-05T09:11:39.293Z,102343.20
2018-12-05T09:14:05.109Z,102345.10
2018-12-05T09:16:30.969Z,102352.47
2018-12-05T09:18:56.890Z,102347.91
2018-12-05T09:21:22.612Z,102347.02
2018-12-05T09:23:48.359Z,102352.22
2018-12-05T09:26:14.084Z,102349.70
2018-12-05T09:28:39.807Z,102346.02
2018-12-05T09:31:05.620Z,102338.47
2018-12-05T09:33:31.343Z,102344.66
2018-12-05T09:35:57.048Z,102341.59
2018-12-05T09:38:22.763Z,102348.95
2018-12-05T09:40:48.589Z,102349.76
2018-12-05T09:43:14.311Z,102349.69
2018-12-05T09:45:40.132Z,102348.20
2018-12-05T09:48:05.855Z,102344.25
2018-12-05T09:50:31.575Z,102340.46
2018-12-05T09:52:57.299Z,102335.63
2018-12-05T09:55:23.227Z,102336.70
2018-12-05T09:57:49.066Z,102341.47
2018-12-05T10:00:14.887Z,102329.77
2018-12-05T10:02:40.612Z,102332.95
2018-12-05T10:05:06.528Z,102328.84
2018-12-05T10:07:32.355Z,102326.55
2018-12-05T10:09:58.066Z,102326.71
2018-12-05T10:12:23.791Z,102324.69
2018-12-05T10:14:49.503Z,102324.41
2018-12-05T10:17:15.339Z,102329.66
2018-12-05T10:19:41.053Z,102325.37
2018-12-05T10:22:06.888Z,102324.56
2018-12-05T10:24:32.719Z,102317.40
2018-12-05T10:26:58.439Z,102317.77
2018-12-05T10:29:24.267Z,102310.03
2018-12-05T10:31:49.979Z,102311.50
2018-12-05T10:34:16.534Z,102314.69
2018-12-05T10:36:42.347Z,102313.11
2018-12-05T10:39:08.072Z,102308.38
2018-12-05T10:41:33.880Z,102311.89
2018-12-05T10:43:59.613Z,102306.05
2018-12-05T10:46:25.319Z,102313.20
2018-12-05T10:48:51.085Z,102312.77
2018-12-05T10:51:16.802Z,102307.64
2018-12-05T10:53:42.525Z,102298.88
2018-12-05T10:56:08.286Z,102297.33
2018-12-05T10:58:34.152Z,102306.05
2018-12-05T11:01:06.140Z,102296.36
2018-12-05T11:03:34.107Z,102289.47
2018-12-05T11:06:06.095Z,102287.76
2018-12-05T11:08:38.018Z,102288.25
2018-12-05T11:11:09.907Z,102284.89
2018-12-05T11:13:41.840Z,102286.94
2018-12-05T11:16:09.578Z,102277.14
2018-12-05T11:18:41.716Z,102274.48
2018-12-05T11:21:13.496Z,102277.03
2018-12-05T11:23:45.436Z,102278.34
2018-12-05T11:26:13.239Z,102281.27
2018-12-05T11:28:39.079Z,102277.51
2018-12-05T11:31:04.903Z,102279.31
2018-12-05T11:33:30.727Z,102271.81
2018-12-05T11:35:56.450Z,102270.99
2018-12-05T11:38:22.275Z,102278.52
2018-12-05T11:40:48.207Z,102270.87
2018-12-05T11:43:14.018Z,102264.55
2018-12-05T11:45:39.848Z,102260.03
2018-12-05T11:48:05.574Z,102239.02
2018-12-05T11:50:31.353Z,102260.19
2018-12-05T11:52:57.171Z,102253.15
2018-12-05T11:55:22.938Z,102248.67
2018-12-05T11:57:48.673Z,102249.75
2018-12-05T12:00:14.511Z,102250.98
2018-12-05T12:02:40.335Z,102254.64
2018-12-05T12:05:06.567Z,102246.48
2018-12-05T12:07:32.390Z,102254.05
2018-12-05T12:09:58.119Z,102251.61
2018-12-05T12:15:27.191Z,102246.04
2018-12-05T12:17:53.035Z,102242.27
2018-12-05T12:20:18.777Z,102240.55
2018-12-05T12:22:44.503Z,102233.63
2018-12-05T12:25:10.350Z,102239.59
2018-12-05T12:27:36.070Z,102238.62
2018-12-05T12:30:02.324Z,102235.57
2018-12-05T12:32:28.056Z,102232.80
2018-12-05T12:34:53.779Z,102227.07
2018-12-05T12:37:19.500Z,102224.27
2018-12-05T12:39:45.236Z,102221.73
2018-12-05T12:42:11.112Z,102218.08
2018-12-05T12:44:36.832Z,102203.00
2018-12-05T12:47:02.659Z,102204.70
2018-12-05T12:49:28.387Z,102207.48
2018-12-05T12:51:54.204Z,102208.95
2018-12-05T12:54:19.918Z,102208.72
2018-12-05T12:56:45.639Z,102204.45
2018-12-05T12:59:11.460Z,102204.95
2018-12-05T13:01:37.311Z,102200.80
2018-12-05T13:04:03.147Z,102202.87
2018-12-05T13:06:28.920Z,102193.28
2018-12-05T13:08:54.630Z,102198.27
2018-12-05T13:11:20.353Z,102196.42
2018-12-05T13:13:46.184Z,102196.33
2018-12-05T13:16:11.916Z,102188.53
2018-12-05T13:18:37.628Z,102182.33
2018-12-05T13:21:03.363Z,102183.91
2018-12-05T13:23:29.097Z,102176.24
2018-12-05T13:25:54.952Z,102174.42
2018-12-05T13:28:20.767Z,102168.20
2018-12-05T13:30:46.703Z,102164.06
2018-12-05T13:33:19.382Z,102167.33
2018-12-05T13:35:52.246Z,102156.02
2018-12-05T13:38:17.964Z,102151.50
2018-12-05T13:40:43.700Z,102155.39
2018-12-05T13:43:09.423Z,102143.37
2018-12-05T13:45:35.257Z,102140.10
2018-12-05T13:48:01.071Z,102145.68
2018-12-05T13:50:26.803Z,102136.09
2018-12-05T13:52:52.620Z,102123.11
2018-12-05T13:55:18.368Z,102129.67
2018-12-05T13:57:44.184Z,102128.72
2018-12-05T14:00:10.140Z,102130.81
2018-12-05T14:02:35.955Z,102122.07
2018-12-05T14:05:01.779Z,102124.02
2018-12-05T14:07:27.507Z,102120.85
2018-12-05T14:09:53.232Z,102114.91
2018-12-05T14:12:25.059Z,102114.31
2018-12-05T14:14:50.784Z,102105.92
2018-12-05T14:17:16.624Z,102105.80
2018-12-05T14:19:42.318Z,102106.66
2018-12-05T14:24:40.576Z,102103.72
2018-12-05T14:27:06.397Z,102108.59
2018-12-05T14:29:32.112Z,102103.72
2018-12-05T14:31:57.855Z,102090.86
2018-12-05T14:34:23.577Z,102084.50
2018-12-05T14:36:49.407Z,102079.88
2018-12-05T14:39:15.195Z,102077.71
2018-12-05T14:41:40.928Z,102074.17
2018-12-05T14:44:06.739Z,102076.37
2018-12-05T14:46:32.459Z,102064.58
2018-12-05T14:48:58.267Z,102066.74
2018-12-05T14:51:24.091Z,102063.97
2018-12-05T14:53:49.803Z,102062.12
2018-12-05T14:56:15.524Z,102055.22
2018-12-05T14:58:41.247Z,102058.71
2018-12-05T15:01:06.987Z,102057.96
2018-12-05T15:03:32.703Z,102068.84
2018-12-05T15:05:58.421Z,102071.99
2018-12-05T15:08:24.235Z,102066.28
2018-12-05T15:10:49.955Z,102060.44
2018-12-05T15:13:15.675Z,102056.31
2018-12-05T15:15:41.396Z,102054.59
2018-12-05T15:18:07.125Z,102055.19
2018-12-05T15:20:32.931Z,102042.42
2018-12-05T15:22:58.665Z,102042.86
2018-12-05T15:25:24.602Z,102039.86
2018-12-05T15:27:50.328Z,102038.61
2018-12-05T15:30:16.178Z,102040.67
2018-12-05T15:32:41.907Z,102038.81
2018-12-05T15:35:07.657Z,102038.56
2018-12-05T15:37:33.392Z,102031.28
2018-12-05T15:39:59.103Z,102028.69
2018-12-05T15:42:24.839Z,102029.40
2018-12-05T15:44:50.656Z,102030.86
2018-12-05T15:47:16.384Z,102027.08
2018-12-05T15:49:42.130Z,102027.29
2018-12-05T15:52:07.959Z,102033.30
2018-12-05T15:54:33.683Z,102028.34
2018-12-05T15:56:59.410Z,102017.53
2018-12-05T15:59:25.124Z,102015.83
2018-12-05T16:01:50.852Z,102004.80
2018-12-05T16:04:16.681Z,102003.52
2018-12-05T16:06:42.527Z,101997.86
2018-12-05T16:09:08.384Z,102000.67
2018-12-05T16:11:34.214Z,101995.78
2018-12-05T16:13:59.940Z,101992.16
2018-12-05T16:16:25.678Z,101979.77
2018-12-05T16:18:51.399Z,101972.98
2018-12-05T16:21:17.220Z,101969.23
2018-12-05T16:23:42.940Z,101967.53
2018-12-05T16:26:10.755Z,101955.17
2018-12-05T16:28:36.968Z,101947.89
2018-12-05T16:31:02.916Z,101949.47
2018-12-05T16:33:28.656Z,101940.95
2018-12-05T16:35:54.583Z,101934.42
2018-12-05T16:38:20.412Z,101931.63
2018-12-05T16:40:47.715Z,101927.64
2018-12-05T16:43:13.451Z,101929.93
2018-12-05T16:45:39.272Z,101929.34
2018-12-05T16:48:06.071Z,101923.67
2018-12-05T16:50:31.952Z,101917.14
2018-12-05T16:52:57.688Z,101917.63
2018-12-05T16:55:23.403Z,101915.47
2018-12-05T16:57:49.702Z,101913.77
2018-12-05T17:00:15.702Z,101912.70
2018-12-05T17:02:41.438Z,101907.38
2018-12-05T17:05:13.303Z,101906.08
2018-12-05T17:07:39.255Z,101907.66
2018-12-05T17:10:05.445Z,101898.35
2018-12-05T17:12:31.378Z,101899.19
2018-12-05T17:14:57.116Z,101884.68
2018-12-05T17:17:23.057Z,101887.59
2018-12-05T17:19:48.821Z,101885.42
2018-12-05T17:22:14.600Z,101873.20
2018-12-05T17:24:40.387Z,101874.17
2018-12-05T17:27:06.104Z,101876.47
2018-12-05T17:29:31.823Z,101875.00
2018-12-05T17:31:57.544Z,101870.05
2018-12-05T17:34:23.368Z,101863.29
2018-12-05T17:36:49.076Z,101855.17
2018-12-05T17:39:14.820Z,101859.91
2018-12-05T17:41:40.539Z,101857.61
2018-12-05T17:44:06.265Z,101856.52
2018-12-05T17:49:03.584Z,101851.19
2018-12-05T17:51:29.316Z,101851.55
2018-12-05T17:53:55.031Z,101838.61
2018-12-05T17:56:20.751Z,101840.78
2018-12-05T17:58:46.488Z,101837.28
2018-12-05T18:01:12.209Z,101834.25
2018-12-05T18:03:37.947Z,101830.39
2018-12-05T18:06:03.765Z,101831.95
2018-12-05T18:08:29.624Z,101835.59
2018-12-05T18:10:55.492Z,101828.80
2018-12-05T18:13:21.224Z,101820.70
2018-12-05T18:15:47.163Z,101813.53
2018-12-05T18:18:12.983Z,101813.67
2018-12-05T18:20:38.906Z,101814.14
2018-12-05T18:23:04.715Z,101811.14
2018-12-05T18:25:30.450Z,101809.67
2018-12-05T18:27:56.379Z,101807.48
2018-12-05T18:30:22.104Z,101798.78
2018-12-05T18:32:47.915Z,101791.62
2018-12-05T18:35:13.656Z,101789.09
2018-12-05T18:37:39.375Z,101784.22
2018-12-05T18:40:05.209Z,101783.16
2018-12-05T18:42:31.038Z,101773.22
2018-12-05T18:44:56.850Z,101766.89
2018-12-05T18:47:22.710Z,101765.83
2018-12-05T18:49:48.447Z,101755.77
2018-12-05T18:52:14.162Z,101757.83
2018-12-05T18:54:39.982Z,101761.92
2018-12-05T18:57:09.335Z,101755.16
2018-12-05T18:59:33.588Z,101746.30
2018-12-05T19:01:59.408Z,101744.23
2018-12-05T19:04:25.224Z,101741.93
2018-12-05T19:06:51.080Z,101731.53
2018-12-05T19:09:16.886Z,101727.53
2018-12-05T19:11:42.855Z,101731.63
2018-12-05T19:17:09.175Z,101724.73
2018-12-05T19:19:35.002Z,101718.66
2018-12-05T19:22:00.834Z,101720.36
2018-12-05T19:24:26.560Z,101725.92
2018-12-05T19:26:52.303Z,101716.13
2018-12-05T19:29:18.755Z,101716.26
2018-12-05T19:31:44.655Z,101709.59
2018-12-05T19:34:10.460Z,101704.73
2018-12-05T19:36:37.543Z,101703.39
2018-12-05T19:39:05.095Z,101696.26
2018-12-05T19:41:30.831Z,101694.66
2018-12-05T19:43:56.656Z,101692.36
2018-12-05T19:46:22.486Z,101681.22
2018-12-05T19:48:48.240Z,101683.52
2018-12-05T19:51:14.064Z,101686.64
2018-12-05T19:53:39.778Z,101678.54
2018-12-05T19:56:05.513Z,101668.34
2018-12-05T19:58:31.236Z,101670.41
2018-12-05T20:00:56.969Z,101668.94
2018-12-05T20:03:22.690Z,101662.77
2018-12-05T20:05:48.516Z,101661.43
2018-12-05T20:08:14.279Z,101664.83
2018-12-05T20:10:40.114Z,101668.83
2018-12-05T20:13:05.963Z,101664.83
2018-12-05T20:15:31.695Z,101653.92
2018-12-05T20:17:57.514Z,101654.16
2018-12-05T20:20:23.377Z,101646.89
2018-12-05T20:22:49.123Z,101640.22
2018-12-05T20:25:14.959Z,101642.50
2018-12-05T20:27:40.691Z,101641.39
2018-12-05T20:30:06.918Z,101640.56
2018-12-05T20:32:32.651Z,101639.09
2018-12-05T20:34:58.580Z,101630.26
2018-12-05T20:37:24.311Z,101637.62
2018-12-05T20:39:50.027Z,101624.78
2018-12-05T20:42:15.865Z,101622.62
2018-12-05T20:44:41.578Z,101614.84
2018-12-05T20:47:07.475Z,101616.17
2018-12-05T20:49:33.202Z,101612.98
2018-12-05T20:51:58.927Z,101619.06
2018-12-05T20:54:24.651Z,101614.92
2018-12-05T20:56:50.399Z,101611.03
2018-12-05T20:59:16.106Z,101604.14
2018-12-05T21:01:42.033Z,101598.78
2018-12-05T21:04:08.485Z,101598.56
2018-12-05T21:06:34.652Z,101595.25
2018-12-05T21:09:00.804Z,101596.00
2018-12-05T21:11:26.764Z,101596.36
2018-12-05T21:13:52.899Z,101596.84
2018-12-05T21:16:18.744Z,101594.64
2018-12-05T21:18:44.924Z,101588.86
2018-12-05T21:21:10.679Z,101586.44
2018-12-05T21:23:36.515Z,101581.24
2018-12-05T21:26:02.622Z,101577.33
2018-12-05T21:28:29.024Z,101586.66
2018-12-05T21:30:55.128Z,101581.69
2018-12-05T21:33:21.296Z,101578.55
2018-12-05T21:35:47.031Z,101581.80
2018-12-05T21:38:13.193Z,101579.23
2018-12-05T21:40:38.983Z,101571.23
2018-12-05T21:43:04.825Z,101568.70
2018-12-05T21:45:30.636Z,101560.34
2018-12-05T21:47:56.648Z,101558.39
2018-12-05T21:50:22.800Z,101549.06
2018-12-05T21:52:48.942Z,101546.03
2018-12-05T21:55:14.870Z,101541.77
2018-12-05T21:57:41.084Z,101543.47
2018-12-05T22:00:07.616Z,101546.25
2018-12-05T22:02:33.348Z,101550.25
2018-12-05T22:04:59.061Z,101553.17
2018-12-05T22:07:24.976Z,101546.14
2018-12-05T22:09:51.155Z,101551.98
2018-12-05T22:12:17.276Z,101541.81
2018-12-05T22:14:43.016Z,101544.11
2018-12-05T22:17:09.087Z,101533.91
2018-12-05T22:19:34.879Z,101522.05
2018-12-05T22:22:00.603Z,101518.41
2018-12-05T22:24:26.767Z,101511.38
2018-12-05T22:26:52.483Z,101513.91
2018-12-05T22:29:18.204Z,101504.74
2018-12-05T22:31:43.920Z,101502.16
2018-12-05T22:34:09.641Z,101505.65
2018-12-05T22:36:36.165Z,101505.39
2018-12-05T22:39:04.615Z,101501.14
2018-12-05T22:41:30.451Z,101492.27
2018-12-05T22:43:56.174Z,101481.13
2018-12-05T22:46:22.000Z,101485.61
2018-12-05T22:48:47.739Z,101476.77
2018-12-05T22:51:13.455Z,101466.45
2018-12-05T22:53:39.187Z,101464.98
2018-12-05T22:56:05.859Z,101458.81
2018-12-05T22:58:31.693Z,101451.16
2018-12-05T23:00:57.635Z,101442.66
2018-12-05T23:03:23.355Z,101445.28
2018-12-05T23:05:49.070Z,101438.25
2018-12-05T23:08:14.808Z,101441.64
2018-12-05T23:10:40.519Z,101433.99
2018-12-05T23:13:06.343Z,101417.84
2018-12-05T23:15:32.052Z,101427.75
2018-12-05T23:17:57.902Z,101422.30
2018-12-05T23:20:23.735Z,101418.41
2018-12-05T23:22:49.461Z,101406.07
2018-12-05T23:25:15.198Z,101403.11
2018-12-05T23:27:40.917Z,101388.72
2018-12-05T23:30:06.880Z,101379.03
2018-12-05T23:32:32.711Z,101375.02
2018-12-05T23:34:58.434Z,101370.16
2018-12-05T23:37:24.351Z,101370.37
2018-12-05T23:39:50.087Z,101372.36
2018-12-05T23:42:15.807Z,101367.80
2018-12-05T23:44:41.536Z,101365.39
2018-12-05T23:47:07.259Z,101361.39
2018-12-05T23:49:32.991Z,101353.53
2018-12-05T23:51:58.714Z,101349.02
2018-12-05T23:54:24.447Z,101347.62
2018-12-05T23:56:50.172Z,101340.71
2018-12-05T23:59:16.003Z,101349.94
